Time;durP1;ratioP1;P1;durP2;ratioP2;P2;SDS_P1;SDS_P2;PMS_P1;PMS_P2;Temp;Humidity;BMP_temperature;BMP_pressure;BME280_temperature;BME280_humidity;BME280_pressure;Samples;Min_cycle;Max_cycle;Signal;HPM_P1;HPM_P2
2023/07/16 00:03:54;;;;;;;1.77;1.17;;;;;;;22.62;59.99;96682.41;10519411;28;20035;-35
2023/07/16 00:08:55;;;;;;;1.40;1.30;;;;;;;22.55;60.29;96681.69;10538995;28;20085;-34
2023/07/16 00:13:55;;;;;;;1.30;1.20;;;;;;;22.45;60.25;96695.44;10520773;28;20040;-34
2023/07/16 00:18:55;;;;;;;1.37;1.27;;;;;;;22.38;60.12;96678.53;10529333;28;20101;-34
2023/07/16 00:23:56;;;;;;;1.80;1.30;;;;;;;22.34;60.00;96692.22;10535086;28;20525;-34
2023/07/16 00:28:56;;;;;;;2.60;1.23;;;;;;;22.32;59.75;96688.00;10524951;28;20571;-35
2023/07/16 00:33:56;;;;;;;2.43;1.00;;;;;;;22.33;60.17;96670.09;10521931;28;20044;-34
2023/07/16 00:38:57;;;;;;;3.53;1.33;;;;;;;22.55;60.57;96676.56;10500674;28;20131;-33
2023/07/16 00:43:57;;;;;;;1.00;0.87;;;;;;;22.63;59.67;96672.19;10532881;28;20040;-35
2023/07/16 00:48:58;;;;;;;0.93;0.83;;;;;;;22.52;60.20;96691.94;10530477;28;20166;-34
2023/07/16 00:53:59;;;;;;;1.40;1.05;;;;;;;22.44;60.29;96703.97;10516931;28;20293;-34
2023/07/16 00:58:59;;;;;;;7.05;2.40;;;;;;;22.40;60.11;96725.25;10538575;28;20504;-34
2023/07/16 01:03:59;;;;;;;2.30;1.17;;;;;;;22.36;59.86;96699.81;10513622;28;20398;-34
2023/07/16 01:09:20;;;;;;;1.30;1.20;;;;;;;22.31;59.68;96682.03;10531912;28;20062;-33
2023/07/16 01:14:21;;;;;;;2.80;1.20;;;;;;;22.43;61.77;96679.34;10545750;28;20028;-33
2023/07/16 01:19:22;;;;;;;1.60;1.15;;;;;;;22.58;61.82;96707.13;10516958;28;20113;-34
2023/07/16 01:24:43;;;;;;;0.93;0.90;;;;;;;22.56;60.13;96726.72;10513505;28;20032;-34
2023/07/16 01:29:54;;;;;;;1.85;1.20;;;;;;;22.43;60.62;96707.41;10535395;28;20040;-32
2023/07/16 01:34:55;;;;;;;3.83;1.20;;;;;;;22.38;60.26;96723.59;10537992;28;20039;-33
2023/07/16 01:39:55;;;;;;;1.27;0.93;;;;;;;22.32;60.22;96724.53;10544337;28;20111;-33
2023/07/16 01:44:56;;;;;;;1.20;0.98;;;;;;;22.32;59.81;96739.84;10528953;28;20066;-34
2023/07/16 01:49:58;;;;;;;3.03;1.10;;;;;;;22.30;59.56;96749.22;10537458;28;20061;-33
2023/07/16 01:54:58;;;;;;;1.83;0.93;;;;;;;22.48;61.40;96768.56;10518807;28;20047;-33
2023/07/16 01:59:59;;;;;;;1.03;0.93;;;;;;;22.63;60.69;96768.31;10525065;28;20028;-34
2023/07/16 02:04:59;;;;;;;0.70;0.70;;;;;;;22.51;60.83;96736.19;10505908;28;20551;-35
2023/07/16 02:09:59;;;;;;;1.50;0.97;;;;;;;22.39;60.37;96715.91;10526411;28;20043;-35
2023/07/16 02:15:00;;;;;;;1.30;1.20;;;;;;;22.36;60.27;96741.50;10536121;28;20111;-33
2023/07/16 02:20:00;;;;;;;1.97;1.00;;;;;;;22.34;60.19;96743.22;10512931;28;20089;-34
2023/07/16 02:25:01;;;;;;;1.58;1.10;;;;;;;22.27;59.66;96746.72;10506081;28;20032;-34
2023/07/16 02:30:05;;;;;;;4.30;1.10;;;;;;;22.28;59.55;96750.97;10504727;28;20040;-34
2023/07/16 02:35:07;;;;;;;1.42;1.10;;;;;;;22.51;59.94;96743.84;10511675;28;20036;-34
2023/07/16 02:40:08;;;;;;;1.63;1.10;;;;;;;22.62;59.57;96753.88;10536343;28;20454;-34
2023/07/16 02:45:08;;;;;;;3.33;1.55;;;;;;;22.52;59.91;96758.28;10522527;28;20036;-33
2023/07/16 02:50:12;;;;;;;1.73;1.10;;;;;;;22.44;59.83;96774.56;10507238;28;20031;-34
2023/07/16 02:55:12;;;;;;;2.65;1.20;;;;;;;22.41;59.77;96774.63;10516022;28;20042;-34
2023/07/16 03:00:13;;;;;;;6.33;1.23;;;;;;;22.36;59.58;96772.09;10511444;28;20393;-34
2023/07/16 03:05:14;;;;;;;4.05;1.38;;;;;;;22.29;59.34;96734.78;10508844;28;20289;-34
2023/07/16 03:10:14;;;;;;;1.63;1.00;;;;;;;22.34;59.70;96766.19;10550298;28;20567;-34
2023/07/16 03:15:14;;;;;;;2.33;1.30;;;;;;;22.52;59.34;96763.38;10529907;28;20308;-34
2023/07/16 03:20:15;;;;;;;2.45;0.73;;;;;;;22.58;59.16;96753.06;10507171;28;20033;-34
2023/07/16 03:25:15;;;;;;;2.97;1.47;;;;;;;22.47;59.51;96739.63;10514553;28;20028;-34
2023/07/16 03:30:16;;;;;;;2.40;1.40;;;;;;;22.44;59.52;96749.91;10508147;28;20053;-33
2023/07/16 03:35:16;;;;;;;5.03;1.10;;;;;;;22.42;59.54;96750.78;10528038;28;20024;-34
2023/07/16 03:40:23;;;;;;;2.00;0.90;;;;;;;22.40;59.23;96763.53;10526273;28;20032;-34
2023/07/16 03:45:24;;;;;;;2.53;1.25;;;;;;;22.38;59.02;96770.34;10524441;28;20145;-33
2023/07/16 03:50:25;;;;;;;1.90;1.38;;;;;;;22.37;59.22;96789.09;10523256;28;20130;-34
2023/07/16 03:55:25;;;;;;;1.63;1.15;;;;;;;22.49;59.36;96791.47;10510696;28;20468;-34
2023/07/16 04:00:26;;;;;;;2.80;1.30;;;;;;;22.51;59.19;96806.78;10505695;28;20036;-34
2023/07/16 04:05:26;;;;;;;1.42;1.05;;;;;;;22.45;59.45;96815.38;10502038;28;20531;-33
2023/07/16 04:10:27;;;;;;;4.60;1.30;;;;;;;22.41;59.41;96825.63;10529647;28;20032;-35
2023/07/16 04:15:27;;;;;;;3.23;1.23;;;;;;;22.36;59.32;96823.13;10530402;28;20335;-33
2023/07/16 04:20:28;;;;;;;2.70;1.20;;;;;;;22.34;59.29;96841.84;10524748;28;20278;-34
2023/07/16 04:25:29;;;;;;;3.47;1.15;;;;;;;22.29;58.84;96831.72;10530711;28;20112;-33
2023/07/16 04:30:29;;;;;;;3.42;1.15;;;;;;;22.32;59.33;96841.88;10520412;28;20107;-34
2023/07/16 04:35:30;;;;;;;4.40;1.10;;;;;;;22.46;59.01;96842.56;10527912;28;20115;-33
2023/07/16 04:40:30;;;;;;;3.70;1.23;;;;;;;22.51;58.97;96837.41;10523828;28;20020;-33
2023/07/16 04:45:31;;;;;;;4.65;1.27;;;;;;;22.43;59.24;96840.06;10528634;28;20133;-33
2023/07/16 04:50:31;;;;;;;4.43;1.13;;;;;;;22.35;59.34;96821.44;10543141;28;20032;-34
2023/07/16 04:55:39;;;;;;;1.40;1.07;;;;;;;22.36;59.20;96820.56;10526693;28;20054;-33
2023/07/16 05:00:39;;;;;;;3.75;1.08;;;;;;;22.32;59.05;96828.28;10525934;28;20024;-33
2023/07/16 05:05:40;;;;;;;1.95;1.20;;;;;;;22.35;59.50;96826.53;10517356;28;20036;-34
2023/07/16 05:10:40;;;;;;;3.47;1.38;;;;;;;22.33;59.29;96832.53;10522715;28;20506;-33
2023/07/16 05:15:43;;;;;;;3.17;1.40;;;;;;;22.45;59.27;96843.44;10527602;28;20024;-34
2023/07/16 05:20:47;;;;;;;2.20;1.15;;;;;;;22.52;59.03;96847.59;10522387;28;20039;-33
2023/07/16 05:25:48;;;;;;;3.25;1.08;;;;;;;22.45;59.22;96852.78;10536864;28;20111;-34
2023/07/16 05:30:57;;;;;;;2.60;1.15;;;;;;;22.39;59.39;96843.47;10534420;28;20376;-34
2023/07/16 05:35:58;;;;;;;2.00;1.20;;;;;;;22.34;59.21;96809.56;10532475;28;20027;-34
2023/07/16 05:41:03;;;;;;;3.10;1.43;;;;;;;22.31;59.66;96819.78;10525869;28;20027;-33
2023/07/16 05:46:06;;;;;;;3.05;1.13;;;;;;;22.39;60.88;96843.47;10520970;28;20119;-34
2023/07/16 05:51:06;;;;;;;2.28;1.33;;;;;;;22.33;60.31;96863.97;10551351;28;20028;-33
2023/07/16 05:56:07;;;;;;;2.60;1.47;;;;;;;22.26;60.27;96854.72;10536145;28;20036;-34
2023/07/16 06:01:08;;;;;;;4.73;1.73;;;;;;;22.29;60.72;96857.22;10533538;28;20032;-34
2023/07/16 06:06:09;;;;;;;3.05;1.80;;;;;;;22.22;61.43;96855.59;10529055;28;20533;-33
2023/07/16 06:11:10;;;;;;;3.55;1.50;;;;;;;22.21;61.99;96864.13;10538281;28;20056;-34
2023/07/16 06:16:10;;;;;;;6.40;1.75;;;;;;;22.16;61.42;96853.13;10528081;28;20027;-34
2023/07/16 06:21:11;;;;;;;7.23;1.70;;;;;;;22.20;61.97;96848.84;10531372;28;20443;-34
2023/07/16 06:26:11;;;;;;;3.95;2.58;;;;;;;22.11;62.16;96847.25;10526639;28;20308;-34
2023/07/16 06:31:11;;;;;;;4.50;1.80;;;;;;;22.06;62.16;96859.19;10525936;28;20036;-35
2023/07/16 06:36:15;;;;;;;5.13;2.07;;;;;;;22.03;62.06;96864.34;10534696;28;20667;-35
2023/07/16 06:41:15;;;;;;;4.30;1.52;;;;;;;22.12;60.24;96883.78;10535452;28;20561;-34
2023/07/16 06:46:15;;;;;;;11.03;2.00;;;;;;;22.14;60.41;96885.47;10523709;28;20036;-35
2023/07/16 06:51:16;;;;;;;7.60;2.30;;;;;;;22.14;60.60;96877.81;10525548;28;20036;-34
2023/07/16 06:56:16;;;;;;;5.80;2.20;;;;;;;22.14;60.39;96872.72;10544111;28;20047;-34
2023/07/16 07:01:16;;;;;;;5.83;1.60;;;;;;;22.10;60.27;96860.88;10525107;28;20413;-33
2023/07/16 07:06:17;;;;;;;4.50;1.80;;;;;;;22.31;61.11;96860.59;10551796;28;20047;-34
2023/07/16 07:11:17;;;;;;;6.67;1.97;;;;;;;22.41;60.94;96864.75;10524213;28;20044;-33
2023/07/16 07:16:18;;;;;;;2.97;1.33;;;;;;;22.36;59.77;96884.34;10543807;28;20032;-33
2023/07/16 07:21:18;;;;;;;5.57;1.60;;;;;;;22.29;60.14;96882.72;10532008;28;20524;-33
2023/07/16 07:26:18;;;;;;;3.60;1.37;;;;;;;22.25;60.01;96870.03;10536444;28;20039;-35
2023/07/16 07:31:19;;;;;;;6.50;1.73;;;;;;;22.22;59.96;96849.69;10531210;28;20085;-33
2023/07/16 07:36:19;;;;;;;2.60;1.43;;;;;;;22.19;60.01;96854.81;10541781;28;20035;-33
2023/07/16 07:41:19;;;;;;;3.88;1.45;;;;;;;22.21;60.16;96853.94;10528389;28;20031;-33
2023/07/16 07:46:20;;;;;;;2.20;1.07;;;;;;;22.39;60.23;96863.88;10552434;28;20060;-33
2023/07/16 07:51:20;;;;;;;1.40;1.10;;;;;;;22.46;59.76;96859.56;10542218;28;20029;-33
2023/07/16 07:56:21;;;;;;;3.47;1.17;;;;;;;22.36;59.91;96856.28;10525264;28;20097;-34
2023/07/16 08:01:21;;;;;;;2.43;1.30;;;;;;;22.30;59.80;96869.09;10534782;28;20279;-34
2023/07/16 08:06:21;;;;;;;2.73;1.40;;;;;;;22.26;59.78;96872.59;10533462;28;20304;-33
2023/07/16 08:11:22;;;;;;;1.33;1.17;;;;;;;22.23;59.51;96877.69;10531626;28;20036;-33
2023/07/16 08:16:22;;;;;;;3.93;1.30;;;;;;;22.22;59.65;96870.91;10534429;28;20044;-34
2023/07/16 08:21:22;;;;;;;2.40;1.30;;;;;;;22.26;60.52;96869.16;10529417;28;20481;-34
2023/07/16 08:26:23;;;;;;;2.00;1.10;;;;;;;22.43;59.93;96863.03;10525731;28;20040;-33
2023/07/16 08:31:23;;;;;;;1.97;1.00;;;;;;;22.44;59.39;96851.97;10525266;28;20472;-33
2023/07/16 08:36:24;;;;;;;3.57;0.93;;;;;;;22.37;59.90;96869.88;10527563;28;20036;-34
2023/07/16 08:41:24;;;;;;;1.98;1.17;;;;;;;22.28;59.60;96873.41;10544647;28;20478;-33
2023/07/16 08:46:25;;;;;;;2.25;1.00;;;;;;;22.25;59.54;96873.44;10541395;28;20037;-33
2023/07/16 08:51:26;;;;;;;1.15;0.93;;;;;;;22.23;59.48;96871.78;10536612;28;20036;-34
2023/07/16 08:56:27;;;;;;;1.77;0.98;;;;;;;22.22;59.38;96870.91;10535599;28;20154;-34
2023/07/16 09:01:27;;;;;;;2.28;1.50;;;;;;;22.28;60.44;96880.19;10541825;28;20032;-34
2023/07/16 09:06:28;;;;;;;2.83;1.50;;;;;;;22.44;59.90;96884.28;10544056;28;20044;-33
2023/07/16 09:11:28;;;;;;;0.93;0.80;;;;;;;22.48;59.28;96871.44;10544672;28;20172;-33
2023/07/16 09:16:33;;;;;;;4.10;1.33;;;;;;;22.36;59.66;96869.03;10543451;28;20036;-33
2023/07/16 09:21:34;;;;;;;2.65;1.00;;;;;;;22.32;59.73;96867.38;10549613;28;20769;-34
2023/07/16 09:26:38;;;;;;;1.88;0.85;;;;;;;22.28;59.58;96881.03;10540266;28;20036;-34
2023/07/16 09:31:52;;;;;;;2.00;1.20;;;;;;;22.24;59.54;96874.28;10548551;28;20024;-34
2023/07/16 09:36:52;;;;;;;1.63;1.02;;;;;;;22.23;59.43;96864.94;10537147;28;20470;-33
2023/07/16 09:41:53;;;;;;;2.08;1.25;;;;;;;22.30;60.34;96881.03;10540787;28;20024;-34
2023/07/16 09:46:54;;;;;;;1.33;0.90;;;;;;;22.46;59.94;96891.06;10542517;28;20056;-34
2023/07/16 09:51:56;;;;;;;1.98;1.00;;;;;;;22.50;59.26;96882.47;10533898;28;20055;-32
2023/07/16 09:57:00;;;;;;;2.10;0.82;;;;;;;22.37;59.67;96891.13;10539741;28;20093;-34
2023/07/16 10:02:01;;;;;;;1.10;0.85;;;;;;;22.32;59.60;96887.78;10538629;28;20044;-33
2023/07/16 10:07:01;;;;;;;1.08;0.98;;;;;;;22.28;59.61;96875.09;10556207;28;20035;-33
2023/07/16 10:12:08;;;;;;;0.73;0.60;;;;;;;22.25;59.44;96881.09;10551106;28;20409;-34
2023/07/16 10:17:12;;;;;;;1.52;0.75;;;;;;;22.24;59.38;96886.22;10521729;28;20036;-34
2023/07/16 10:22:13;;;;;;;2.53;1.10;;;;;;;22.28;60.57;96885.28;10536422;28;20508;-34
2023/07/16 10:27:13;;;;;;;1.58;0.75;;;;;;;22.45;59.78;96886.81;10542790;28;20036;-33
2023/07/16 10:32:14;;;;;;;1.92;1.17;;;;;;;22.49;59.19;96885.91;10550848;28;20036;-33
2023/07/16 10:37:14;;;;;;;1.38;0.80;;;;;;;22.39;59.57;96879.19;10548792;28;20032;-34
2023/07/16 10:42:19;;;;;;;1.43;0.90;;;;;;;22.32;59.65;96876.75;10548220;28;20032;-35
2023/07/16 10:47:31;;;;;;;2.42;0.90;;;;;;;22.29;59.46;96880.19;10540265;28;20417;-34
2023/07/16 10:52:31;;;;;;;0.70;0.60;;;;;;;22.27;59.47;96874.25;10527050;28;20122;-34
2023/07/16 10:57:34;;;;;;;1.08;0.80;;;;;;;22.24;59.28;96874.28;10535739;28;20437;-33
2023/07/16 11:02:40;;;;;;;1.05;0.65;;;;;;;22.26;60.22;96870.03;10543228;28;20066;-33
2023/07/16 11:07:44;;;;;;;1.33;0.93;;;;;;;22.42;59.81;96853.69;10540007;28;20025;-33
2023/07/16 11:12:51;;;;;;;1.20;0.70;;;;;;;22.51;59.56;96861.22;10541796;28;20516;-33
2023/07/16 11:17:52;;;;;;;0.85;0.70;;;;;;;22.40;59.71;96850.25;10544669;28;20036;-33
2023/07/16 11:22:52;;;;;;;1.53;0.90;;;;;;;22.34;59.71;96857.16;10554503;28;20035;-33
2023/07/16 11:27:56;;;;;;;1.60;0.90;;;;;;;22.29;59.50;96847.03;10547562;28;20035;-34
2023/07/16 11:32:58;;;;;;;1.27;0.68;;;;;;;22.28;59.37;96863.19;10533677;28;20286;-34
2023/07/16 11:37:58;;;;;;;0.82;0.70;;;;;;;22.26;59.42;96862.38;10542865;28;20098;-35
2023/07/16 11:43:10;;;;;;;1.00;0.80;;;;;;;22.24;59.30;96850.50;10527362;28;20024;-34
2023/07/16 11:48:11;;;;;;;0.98;0.80;;;;;;;22.42;59.93;96863.91;10538419;28;20071;-34
2023/07/16 11:53:11;;;;;;;1.23;0.80;;;;;;;22.52;59.57;96855.25;10536421;28;20496;-33
2023/07/16 11:58:11;;;;;;;1.20;0.90;;;;;;;22.43;59.71;96847.72;10534315;28;20370;-33
2023/07/16 12:03:12;;;;;;;1.20;0.90;;;;;;;22.36;59.81;96851.19;10544693;28;20404;-34
2023/07/16 12:08:14;;;;;;;1.30;0.73;;;;;;;22.32;59.64;96852.06;10537815;28;20413;-34
2023/07/16 12:13:14;;;;;;;1.75;0.77;;;;;;;22.28;59.65;96835.13;10527852;28;20028;-33
2023/07/16 12:18:15;;;;;;;0.80;0.53;;;;;;;22.24;59.59;96827.53;10541538;28;20028;-33
2023/07/16 12:23:15;;;;;;;1.07;0.97;;;;;;;22.24;59.43;96822.44;10529677;28;20554;-33
2023/07/16 12:28:15;;;;;;;1.27;0.80;;;;;;;22.36;59.91;96815.47;10532722;28;20040;-33
2023/07/16 12:33:16;;;;;;;1.43;1.13;;;;;;;22.51;60.18;96820.41;10531556;28;20047;-34
2023/07/16 12:38:16;;;;;;;0.93;0.80;;;;;;;22.49;59.38;96819.56;10554758;28;20028;-34
2023/07/16 12:43:16;;;;;;;1.10;0.70;;;;;;;22.36;59.78;96802.72;10540299;28;20032;-34
2023/07/16 12:48:17;;;;;;;0.97;0.80;;;;;;;22.32;59.50;96803.59;10545060;28;20802;-34
2023/07/16 12:53:17;;;;;;;0.70;0.70;;;;;;;22.25;59.43;96799.47;10536911;28;20180;-33
2023/07/16 12:58:18;;;;;;;0.87;0.63;;;;;;;22.27;59.41;96817.28;10555518;28;20032;-35
2023/07/16 13:03:18;;;;;;;0.85;0.57;;;;;;;22.25;59.44;96814.78;10544471;28;20039;-33
2023/07/16 13:08:19;;;;;;;0.80;0.60;;;;;;;22.27;60.33;96810.50;10532621;28;20040;-34
2023/07/16 13:13:19;;;;;;;0.77;0.70;;;;;;;22.46;60.06;96814.50;10553141;28;20322;-33
2023/07/16 13:18:19;;;;;;;0.93;0.63;;;;;;;22.49;59.41;96804.25;10562566;28;20051;-34
2023/07/16 13:23:20;;;;;;;1.40;1.00;;;;;;;22.42;59.76;96802.66;10541890;28;20512;-34
2023/07/16 13:28:21;;;;;;;0.77;0.60;;;;;;;22.35;59.69;96808.69;10536963;28;20294;-33
2023/07/16 13:33:22;;;;;;;0.93;0.70;;;;;;;22.31;59.45;96801.91;10549615;28;20041;-33
2023/07/16 13:38:23;;;;;;;1.45;0.70;;;;;;;22.29;59.44;96800.25;10552340;28;20028;-33
2023/07/16 13:43:23;;;;;;;1.10;0.80;;;;;;;22.24;59.48;96786.72;10539686;28;20035;-34
2023/07/16 13:48:23;;;;;;;1.00;0.90;;;;;;;22.26;59.73;96790.97;10526644;28;20550;-32
2023/07/16 13:53:24;;;;;;;11.23;1.40;;;;;;;22.44;60.62;96794.97;10534968;28;20811;-32
2023/07/16 13:58:24;;;;;;;5.40;1.20;;;;;;;22.58;60.73;96783.69;10547969;28;20043;-34
2023/07/16 14:03:25;;;;;;;6.10;1.63;;;;;;;22.98;55.94;96787.31;10544320;28;20078;-33
2023/07/16 14:08:27;;;;;;;4.28;1.73;;;;;;;22.79;55.81;96783.38;10539167;28;20032;-34
2023/07/16 14:13:28;;;;;;;4.40;1.63;;;;;;;22.66;57.32;96781.88;10535470;28;20067;-35
2023/07/16 14:18:28;;;;;;;4.63;1.52;;;;;;;22.50;58.01;96779.59;10539433;28;20059;-33
2023/07/16 14:23:28;;;;;;;6.30;1.87;;;;;;;22.38;57.66;96770.34;10529651;28;20037;-33
2023/07/16 14:28:29;;;;;;;4.07;1.57;;;;;;;22.65;53.99;96762.31;10518506;28;20287;-33
2023/07/16 14:33:29;;;;;;;4.28;1.30;;;;;;;22.73;53.21;96763.03;10533703;28;20075;-33
2023/07/16 14:38:29;;;;;;;5.03;2.00;;;;;;;22.70;54.81;96763.09;10525115;28;20140;-34
2023/07/16 14:43:30;;;;;;;6.63;2.43;;;;;;;22.54;55.48;96756.53;10533262;28;20409;-33
2023/07/16 14:48:30;;;;;;;3.53;1.80;;;;;;;22.68;53.47;96753.78;10529220;28;20296;-33
2023/07/16 14:53:31;;;;;;;5.60;2.53;;;;;;;22.75;52.61;96763.03;10538616;28;20274;-33
2023/07/16 14:58:34;;;;;;;7.33;2.60;;;;;;;22.53;52.74;96759.97;10523713;28;20024;-33
2023/07/16 15:03:35;;;;;;;4.95;2.28;;;;;;;22.60;53.99;96765.81;10523095;28;20047;-34
2023/07/16 15:08:36;;;;;;;4.85;2.60;;;;;;;22.76;52.79;96750.25;10529328;28;20044;-33
2023/07/16 15:13:36;;;;;;;6.83;2.17;;;;;;;23.04;51.98;96759.13;10511795;28;20566;-34
2023/07/16 15:18:37;;;;;;;9.43;2.72;;;;;;;23.08;51.66;96755.63;10525021;28;20298;-34
2023/07/16 15:23:39;;;;;;;6.17;2.30;;;;;;;22.89;52.00;96753.44;10520107;28;20040;-34
2023/07/16 15:28:43;;;;;;;4.78;2.30;;;;;;;23.10;51.13;96766.69;10522416;28;20328;-34
2023/07/16 15:33:43;;;;;;;4.43;1.73;;;;;;;22.99;51.26;96763.44;10537572;28;20498;-33
2023/07/16 15:38:43;;;;;;;3.97;1.93;;;;;;;23.26;49.37;96750.25;10522191;28;20036;-34
2023/07/16 15:43:48;;;;;;;5.60;2.10;;;;;;;23.27;49.00;96764.69;10534088;28;20035;-34
2023/07/16 15:48:48;;;;;;;9.30;2.95;;;;;;;22.95;51.97;96759.28;10532855;28;20032;-34
2023/07/16 15:53:53;;;;;;;3.83;2.00;;;;;;;23.03;51.76;96759.13;10523800;28;20020;-34
2023/07/16 15:58:53;;;;;;;8.27;2.47;;;;;;;22.94;52.83;96759.28;10531025;28;20031;-33
2023/07/16 16:03:56;;;;;;;7.67;2.50;;;;;;;22.93;53.58;96755.06;10534986;28;20028;-34
2023/07/16 16:08:56;;;;;;;4.43;1.63;;;;;;;23.06;51.89;96748.88;10531984;28;20028;-34
2023/07/16 16:13:57;;;;;;;4.43;1.90;;;;;;;23.04;51.13;96754.00;10530723;28;20047;-33
2023/07/16 16:18:57;;;;;;;7.90;1.90;;;;;;;23.08;51.80;96754.81;10525152;28;20032;-32
2023/07/16 16:23:59;;;;;;;8.25;2.10;;;;;;;22.88;53.45;96750.03;10531802;28;20028;-34
2023/07/16 16:29:00;;;;;;;4.80;2.17;;;;;;;23.03;52.40;96752.34;10529746;28;20043;-33
2023/07/16 16:34:00;;;;;;;5.50;1.90;;;;;;;22.87;53.23;96752.59;10527609;28;20039;-33
2023/07/16 16:39:00;;;;;;;3.40;2.20;;;;;;;23.07;52.49;96748.84;10529868;28;20389;-33
2023/07/16 16:44:01;;;;;;;3.87;2.17;;;;;;;23.10;52.38;96747.94;10519848;28;20359;-34
2023/07/16 16:49:02;;;;;;;2.92;1.73;;;;;;;22.78;53.87;96728.09;10523371;28;20055;-34
2023/07/16 16:54:02;;;;;;;2.42;1.73;;;;;;;22.84;53.80;96750.09;10515476;28;20511;-33
2023/07/16 16:59:03;;;;;;;2.65;2.10;;;;;;;22.91;51.98;96747.41;10528337;28;20020;-34
2023/07/16 17:04:04;;;;;;;5.38;2.15;;;;;;;22.93;51.98;96738.03;10530110;28;20032;-34
2023/07/16 17:09:04;;;;;;;6.28;2.20;;;;;;;23.04;50.97;96742.94;10529244;28;20043;-34
2023/07/16 17:14:05;;;;;;;3.13;2.30;;;;;;;22.87;52.84;96738.13;10526681;28;20044;-33
2023/07/16 17:19:05;;;;;;;1.73;1.27;;;;;;;22.78;54.35;96748.50;10529214;28;20028;-34
2023/07/16 17:24:06;;;;;;;3.97;1.80;;;;;;;22.84;53.21;96748.41;10531038;28;20347;-34
2023/07/16 17:29:07;;;;;;;4.15;1.75;;;;;;;23.01;50.71;96750.66;10526629;28;20398;-34
2023/07/16 17:34:08;;;;;;;6.05;1.60;;;;;;;23.17;48.43;96752.13;10538651;28;20109;-33
2023/07/16 17:39:08;;;;;;;4.67;1.80;;;;;;;23.10;48.74;96753.06;10532066;28;20040;-34
2023/07/16 17:44:09;;;;;;;2.90;1.60;;;;;;;22.78;52.40;96756.16;10529106;28;20678;-34
2023/07/16 17:49:09;;;;;;;2.40;1.70;;;;;;;22.60;55.01;96761.56;10524761;28;20298;-33
2023/07/16 17:54:09;;;;;;;3.67;1.43;;;;;;;22.56;55.34;96767.56;10521307;28;20111;-33
2023/07/16 17:59:10;;;;;;;4.90;1.60;;;;;;;22.67;54.45;96765.72;10528319;28;20802;-34
2023/07/16 18:04:10;;;;;;;2.90;1.80;;;;;;;22.79;54.60;96752.75;10535152;28;20035;-34
2023/07/16 18:09:14;;;;;;;3.20;1.80;;;;;;;22.71;54.85;96762.22;10533760;28;20109;-34
2023/07/16 18:14:15;;;;;;;5.20;1.90;;;;;;;22.61;55.88;96778.56;10531867;28;20032;-32
2023/07/16 18:19:15;;;;;;;2.90;1.47;;;;;;;22.55;56.08;96770.97;10521233;28;20414;-33
2023/07/16 18:24:16;;;;;;;2.47;1.73;;;;;;;22.52;56.26;96778.69;10539552;28;20279;-34
2023/07/16 18:29:16;;;;;;;3.38;1.70;;;;;;;22.67;55.56;96773.38;10531482;28;20425;-35
2023/07/16 18:34:17;;;;;;;2.90;1.47;;;;;;;22.77;55.53;96780.00;10541296;28;20050;-33
2023/07/16 18:39:17;;;;;;;4.07;1.80;;;;;;;22.68;55.70;96780.16;10522968;28;20040;-33
2023/07/16 18:44:17;;;;;;;3.83;1.30;;;;;;;22.57;56.30;96779.47;10534678;28;20035;-33
2023/07/16 18:49:18;;;;;;;3.30;1.53;;;;;;;22.51;56.67;96777.00;10532478;28;20047;-34
2023/07/16 18:54:19;;;;;;;3.03;1.10;;;;;;;22.48;56.87;96781.31;10533341;28;20072;-33
2023/07/16 18:59:19;;;;;;;1.95;1.33;;;;;;;22.66;56.23;96791.25;10529674;28;20032;-34
2023/07/16 19:04:22;;;;;;;2.30;1.80;;;;;;;22.75;56.17;96781.72;10530296;28;20032;-34
2023/07/16 19:09:22;;;;;;;2.65;1.33;;;;;;;22.67;56.41;96785.28;10521827;28;20065;-34
2023/07/16 19:14:23;;;;;;;2.17;1.42;;;;;;;22.57;56.63;96787.13;10529558;28;20058;-34
2023/07/16 19:19:23;;;;;;;4.73;1.77;;;;;;;22.47;56.88;96788.13;10526714;28;20528;-33
2023/07/16 19:24:24;;;;;;;1.35;0.95;;;;;;;22.46;57.02;96804.31;10538502;28;20524;-33
2023/07/16 19:29:24;;;;;;;2.10;1.60;;;;;;;22.61;56.91;96806.63;10526788;28;20040;-33
2023/07/16 19:34:24;;;;;;;2.10;1.40;;;;;;;22.73;56.65;96806.44;10531144;28;20115;-34
2023/07/16 19:39:25;;;;;;;2.40;1.53;;;;;;;22.69;56.56;96817.56;10542546;28;20024;-34
2023/07/16 19:44:26;;;;;;;2.60;1.40;;;;;;;22.55;57.02;96832.22;10545605;28;20046;-34
2023/07/16 19:49:26;;;;;;;2.65;1.50;;;;;;;22.48;57.14;96825.53;10519252;28;20040;-34
2023/07/16 19:54:27;;;;;;;1.63;1.13;;;;;;;22.46;57.17;96832.38;10527707;28;20486;-34
2023/07/16 19:59:27;;;;;;;2.53;1.50;;;;;;;22.49;57.45;96839.13;10516136;28;20040;-34
2023/07/16 20:04:27;;;;;;;4.10;1.60;;;;;;;22.71;57.04;96856.66;10525754;28;20036;-33
2023/07/16 20:09:28;;;;;;;2.30;1.17;;;;;;;22.70;56.70;96847.34;10533600;28;20806;-34
2023/07/16 20:14:29;;;;;;;2.78;1.33;;;;;;;22.60;57.01;96858.53;10524964;28;20044;-33
2023/07/16 20:19:31;;;;;;;2.10;1.40;;;;;;;22.52;57.14;96860.34;10537512;28;20039;-34
2023/07/16 20:24:31;;;;;;;4.53;1.85;;;;;;;22.48;57.22;96866.34;10533286;28;20077;-34
2023/07/16 20:29:32;;;;;;;1.47;1.20;;;;;;;22.43;57.41;96873.25;10542210;28;20841;-33
2023/07/16 20:34:32;;;;;;;2.38;1.50;;;;;;;22.58;56.32;96875.56;10543154;28;20570;-34
2023/07/16 20:39:32;;;;;;;1.77;1.47;;;;;;;22.70;55.60;96880.50;10538322;28;20035;-33
2023/07/16 20:44:33;;;;;;;1.80;1.43;;;;;;;22.62;55.96;96877.22;10534440;28;20362;-34
2023/07/16 20:49:34;;;;;;;3.40;1.47;;;;;;;22.54;56.47;96886.69;10508867;28;20041;-33
2023/07/16 20:54:35;;;;;;;2.97;1.60;;;;;;;22.47;56.98;96892.72;10535065;28;20036;-34
2023/07/16 20:59:36;;;;;;;3.50;1.50;;;;;;;22.44;57.32;96900.44;10533339;28;20102;-34
2023/07/16 21:04:36;;;;;;;2.17;1.40;;;;;;;22.41;57.15;96900.47;10550527;28;20557;-33
2023/07/16 21:09:37;;;;;;;2.03;1.60;;;;;;;22.58;55.97;96906.19;10532002;28;20036;-33
2023/07/16 21:14:37;;;;;;;3.40;1.63;;;;;;;22.67;55.35;96921.41;10550271;28;20396;-33
2023/07/16 21:19:37;;;;;;;3.57;1.90;;;;;;;22.61;55.68;96912.97;10530836;28;20043;-33
2023/07/16 21:24:38;;;;;;;3.67;1.80;;;;;;;22.53;56.22;96918.19;10544200;28;20386;-33
2023/07/16 21:29:38;;;;;;;1.93;1.43;;;;;;;22.50;56.49;96923.31;10533555;28;20046;-33
2023/07/16 21:34:38;;;;;;;2.93;1.80;;;;;;;22.43;56.75;96915.75;10549869;28;20393;-34
2023/07/16 21:39:39;;;;;;;2.93;1.63;;;;;;;22.47;56.07;96922.53;10526715;28;20028;-34
2023/07/16 21:44:39;;;;;;;4.75;1.50;;;;;;;22.55;55.47;96921.56;10535602;28;20038;-34
2023/07/16 21:49:39;;;;;;;2.33;1.63;;;;;;;22.57;55.08;96919.00;10535669;28;20042;-34
2023/07/16 21:54:41;;;;;;;2.13;1.70;;;;;;;22.58;55.19;96926.59;10531228;28;20168;-37
2023/07/16 21:59:42;;;;;;;4.50;2.10;;;;;;;22.50;56.05;96923.31;10533743;28;20481;-34
2023/07/16 22:04:42;;;;;;;1.40;1.03;;;;;;;22.46;56.30;96920.81;10544438;28;20081;-34
2023/07/16 22:09:43;;;;;;;2.95;1.92;;;;;;;22.45;55.41;96935.28;10532049;28;20032;-33
2023/07/16 22:14:43;;;;;;;3.67;1.73;;;;;;;22.44;56.05;96922.53;10536680;28;20028;-33
2023/07/16 22:19:43;;;;;;;2.10;1.67;;;;;;;22.55;55.08;96931.75;10536626;28;20625;-34
2023/07/16 22:24:44;;;;;;;3.10;2.10;;;;;;;22.61;54.56;96931.69;10537319;28;20294;-34
2023/07/16 22:29:44;;;;;;;8.43;1.73;;;;;;;22.54;54.70;96935.19;10536062;28;20038;-33
2023/07/16 22:34:44;;;;;;;3.37;1.50;;;;;;;22.51;54.91;96930.13;10536069;28;20064;-33
2023/07/16 22:39:45;;;;;;;2.88;1.90;;;;;;;22.47;55.24;96942.94;10534550;28;20497;-33
2023/07/16 22:44:47;;;;;;;3.60;2.10;;;;;;;22.45;55.33;96934.44;10528543;28;20039;-33
2023/07/16 22:49:49;;;;;;;3.15;1.77;;;;;;;22.43;54.73;96938.72;10534850;28;20110;-34
2023/07/16 22:54:50;;;;;;;4.57;1.88;;;;;;;22.50;55.02;96932.69;10534294;28;20043;-33
2023/07/16 22:59:50;;;;;;;3.10;1.90;;;;;;;22.53;54.19;96928.38;10526346;28;20046;-34
2023/07/16 23:04:50;;;;;;;4.15;2.08;;;;;;;22.48;54.52;96929.31;10526921;28;20118;-35
2023/07/16 23:09:51;;;;;;;6.50;2.37;;;;;;;22.45;54.30;96949.75;10534372;28;20038;-34
2023/07/16 23:14:51;;;;;;;4.80;2.00;;;;;;;22.44;54.46;96942.97;10522177;28;20032;-34
2023/07/16 23:19:53;;;;;;;2.50;1.77;;;;;;;22.40;54.83;96937.00;10534294;28;20028;-34